CDT,Max TemperatureF,Mean TemperatureF,Min TemperatureF,Max Dew PointF,MeanDew PointF,Min DewpointF,Max Humidity, Mean Humidity, Min Humidity, Max Sea Level PressureIn, Mean Sea Level PressureIn, Min Sea Level PressureIn, Max VisibilityMiles, Mean VisibilityMiles, Min VisibilityMiles, Max Wind SpeedMPH, Mean Wind SpeedMPH, Max Gust SpeedMPH,PrecipitationIn, CloudCover, Events, WindDirDegrees
2013-9-1,84,77,69,70,67,64,97,78,58,29.96,29.86,29.80,10,10,9,16,4,29,0.01,2,Rain,264
2013-9-2,86,74,62,69,65,61,100,74,48,29.99,29.94,29.89,10,10,6,17,4,26,0.00,1,,312
2013-9-3,86,72,58,64,60,56,100,69,37,30.07,30.03,29.99,10,10,10,9,2,14,0.00,0,,239
2013-9-4,86,71,55,61,58,56,100,69,37,30.17,30.11,30.06,10,10,7,13,2,29,0.00,0,,148
2013-9-5,85,70,55,61,59,56,100,70,40,30.21,30.16,30.13,10,10,10,8,2,13,0.00,0,,117
2013-9-6,87,73,59,63,61,58,97,70,42,30.17,30.11,30.04,10,9,5,8,4,13,0.00,0,,134
2013-9-7,93,78,63,67,63,60,100,68,36,30.06,30.02,29.96,10,9,5,9,3,12,0.00,0,,159
2013-9-8,95,80,65,71,66,63,93,66,39,29.98,29.95,29.91,10,9,8,12,2,17,0.00,0,,214
2013-9-9,94,82,69,69,65,62,93,66,38,30.02,29.97,29.92,10,10,7,12,2,16,0.00,0,,208
2013-9-10,94,80,65,68,63,58,93,62,30,30.13,30.08,30.00,10,10,7,22,3,31,0.00,0,,216
2013-9-11,92,80,67,69,66,64,93,67,41,30.19,30.12,30.07,10,9,8,10,2,14,0.00,0,Thunderstorm,183
2013-9-12,93,80,66,70,67,62,100,70,39,30.09,30.04,29.99,10,8,4,17,3,24,0.00,1,,17
2013-9-13,81,69,57,66,53,47,84,58,32,30.10,30.05,30.01,10,10,10,12,5,21,0.00,1,,37
2013-9-14,78,65,51,53,50,47,96,67,38,30.12,30.06,30.02,10,10,10,14,5,18,0.00,0,,130
2013-9-15,88,71,53,63,56,48,89,65,40,30.08,30.05,30.02,,,,10,6,13,0.00,0,,141
2013-9-16,73,68,63,65,63,61,93,81,68,30.23,30.15,30.06,,,,12,3,20,0.32,5,Rain-Thunderstorm,110
2013-9-17,84,75,65,65,64,62,93,74,55,30.21,30.12,30.03,,,,9,7,17,0.01,5,,124
2013-9-18,87,77,67,70,66,64,87,71,55,30.06,30.01,29.97,,,,10,6,16,0.01,3,Rain,153
2013-9-19,90,80,69,70,67,64,90,70,50,30.01,29.97,29.91,10,10,8,15,7,21,T,1,Rain-Thunderstorm,174
2013-9-20,76,67,57,68,64,55,93,81,68,29.99,29.96,29.91,10,8,2,17,5,32,0.74,7,Rain-Thunderstorm,322
2013-9-21,76,63,49,53,47,39,96,62,27,30.01,29.96,29.92,10,10,8,13,5,24,0.00,0,,318
2013-9-22,75,61,46,51,48,44,93,65,36,30.01,29.95,29.91,10,9,5,12,3,15,0.00,0,,116
2013-9-23,78,64,49,56,52,48,93,67,40,29.96,29.91,29.84,10,10,10,16,5,22,0.00,0,,122
2013-9-24,82,68,54,57,55,53,93,66,39,29.91,29.86,29.81,10,10,7,14,5,21,0.00,1,,259
2013-9-25,81,69,57,59,57,55,93,71,48,29.91,29.86,29.82,10,10,10,12,3,16,0.00,1,,303
2013-9-26,84,69,54,61,58,54,100,72,43,29.99,29.93,29.87,10,10,8,12,5,16,0.00,0,,127
2013-9-27,86,72,58,63,59,57,100,70,40,30.07,30.01,29.95,10,7,0,16,6,21,0.00,1,Fog,143
2013-9-28,84,74,64,67,64,60,100,78,55,30.05,29.99,29.94,10,8,2,16,6,24,0.21,6,Rain,158
2013-9-29,75,67,59,66,60,57,100,81,61,30.07,30.02,29.95,10,7,2,10,4,14,0.05,6,Rain,328
2013-9-30,80,70,59,65,62,57,100,79,58,29.99,29.95,29.87,10,5,0,12,6,16,0.00,6,Fog,144